sensor_id;sensor_type;location;lat;lon;timestamp;temperature;humidity
17859;DHT22;35426;30.698;104.050;2022-09-09T00:01:07;21.30;99.90
17859;DHT22;35426;30.698;104.050;2022-09-09T00:03:45;21.40;99.90
17859;DHT22;35426;30.698;104.050;2022-09-09T00:06:24;21.40;99.90
17859;DHT22;35426;30.698;104.050;2022-09-09T00:09:07;21.60;99.90
17859;DHT22;35426;30.698;104.050;2022-09-09T00:11:46;21.40;99.90
17859;DHT22;35426;30.698;104.050;2022-09-09T00:14:26;21.50;99.90
17859;DHT22;35426;30.698;104.050;2022-09-09T00:17:04;21.50;99.90
17859;DHT22;35426;30.698;104.050;2022-09-09T00:19:44;21.70;99.90
17859;DHT22;35426;30.698;104.050;2022-09-09T00:22:22;21.70;99.90
17859;DHT22;35426;30.698;104.050;2022-09-09T00:25:03;21.90;99.90
17859;DHT22;35426;30.698;104.050;2022-09-09T00:27:46;21.90;99.90
17859;DHT22;35426;30.698;104.050;2022-09-09T00:30:22;22.00;99.90
17859;DHT22;35426;30.698;104.050;2022-09-09T00:33:00;22.10;99.90
17859;DHT22;35426;30.698;104.050;2022-09-09T00:35:36;22.10;99.90
17859;DHT22;35426;30.698;104.050;2022-09-09T00:38:13;22.00;99.90
17859;DHT22;35426;30.698;104.050;2022-09-09T00:40:51;22.20;99.90
17859;DHT22;35426;30.698;104.050;2022-09-09T00:43:29;22.20;99.90
17859;DHT22;35426;30.698;104.050;2022-09-09T00:49:19;22.10;99.90
17859;DHT22;35426;30.698;104.050;2022-09-09T00:52:03;22.10;99.90
17859;DHT22;35426;30.698;104.050;2022-09-09T00:54:48;22.20;99.90
17859;DHT22;35426;30.698;104.050;2022-09-09T00:57:30;22.30;99.90
17859;DHT22;35426;30.698;104.050;2022-09-09T01:00:22;22.20;99.90
17859;DHT22;35426;30.698;104.050;2022-09-09T01:03:22;22.40;99.90
17859;DHT22;35426;30.698;104.050;2022-09-09T01:06:13;22.60;99.90
17859;DHT22;35426;30.698;104.050;2022-09-09T01:09:07;22.90;99.90
17859;DHT22;35426;30.698;104.050;2022-09-09T01:11:52;23.20;99.90
17859;DHT22;35426;30.698;104.050;2022-09-09T01:14:40;23.60;99.90
17859;DHT22;35426;30.698;104.050;2022-09-09T01:17:21;23.50;99.90
17859;DHT22;35426;30.698;104.050;2022-09-09T01:20:12;23.90;99.90
17859;DHT22;35426;30.698;104.050;2022-09-09T01:23:04;24.60;99.90
17859;DHT22;35426;30.698;104.050;2022-09-09T01:26:08;25.30;99.90
17859;DHT22;35426;30.698;104.050;2022-09-09T01:28:46;26.10;99.90
17859;DHT22;35426;30.698;104.050;2022-09-09T01:31:26;25.90;99.90
17859;DHT22;35426;30.698;104.050;2022-09-09T01:34:01;26.60;99.90
17859;DHT22;35426;30.698;104.050;2022-09-09T01:36:37;27.10;99.90
17859;DHT22;35426;30.698;104.050;2022-09-09T01:39:13;27.80;99.90
17859;DHT22;35426;30.698;104.050;2022-09-09T01:41:53;27.90;99.90
17859;DHT22;35426;30.698;104.050;2022-09-09T01:44:29;27.10;99.90
17859;DHT22;35426;30.698;104.050;2022-09-09T01:47:03;27.10;99.90
17859;DHT22;35426;30.698;104.050;2022-09-09T01:49:48;27.70;99.90
17859;DHT22;35426;30.698;104.050;2022-09-09T01:52:26;27.40;99.90
17859;DHT22;35426;30.698;104.050;2022-09-09T01:55:00;27.30;99.90
17859;DHT22;35426;30.698;104.050;2022-09-09T01:57:45;27.20;99.90
17859;DHT22;35426;30.698;104.050;2022-09-09T02:00:22;27.40;99.90
17859;DHT22;35426;30.698;104.050;2022-09-09T02:03:04;27.90;99.90
17859;DHT22;35426;30.698;104.050;2022-09-09T02:05:55;28.10;99.90
17859;DHT22;35426;30.698;104.050;2022-09-09T02:08:40;28.70;99.90
17859;DHT22;35426;30.698;104.050;2022-09-09T02:11:16;29.10;99.90
17859;DHT22;35426;30.698;104.050;2022-09-09T02:14:16;29.30;99.90
17859;DHT22;35426;30.698;104.050;2022-09-09T02:16:55;28.60;99.90
17859;DHT22;35426;30.698;104.050;2022-09-09T02:19:52;28.00;99.90
17859;DHT22;35426;30.698;104.050;2022-09-09T02:22:54;27.50;99.90
17859;DHT22;35426;30.698;104.050;2022-09-09T02:25:32;27.30;99.90
17859;DHT22;35426;30.698;104.050;2022-09-09T02:28:18;27.60;99.90
17859;DHT22;35426;30.698;104.050;2022-09-09T02:31:00;27.60;99.90
17859;DHT22;35426;30.698;104.050;2022-09-09T02:33:46;27.10;99.90
17859;DHT22;35426;30.698;104.050;2022-09-09T02:36:23;27.00;99.90
17859;DHT22;35426;30.698;104.050;2022-09-09T02:38:57;27.00;99.90
17859;DHT22;35426;30.698;104.050;2022-09-09T02:41:36;26.70;99.90
17859;DHT22;35426;30.698;104.050;2022-09-09T02:44:12;26.40;99.90
17859;DHT22;35426;30.698;104.050;2022-09-09T02:47:09;26.60;99.90
17859;DHT22;35426;30.698;104.050;2022-09-09T02:49:52;26.90;99.90
17859;DHT22;35426;30.698;104.050;2022-09-09T02:52:36;27.10;99.90
17859;DHT22;35426;30.698;104.050;2022-09-09T02:55:16;27.10;99.90
17859;DHT22;35426;30.698;104.050;2022-09-09T02:57:53;27.40;99.90
17859;DHT22;35426;30.698;104.050;2022-09-09T03:00:30;27.50;99.90
17859;DHT22;35426;30.698;104.050;2022-09-09T03:03:06;27.50;99.90
17859;DHT22;35426;30.698;104.050;2022-09-09T03:05:41;27.70;99.90
17859;DHT22;35426;30.698;104.050;2022-09-09T03:08:15;28.00;99.90
17859;DHT22;35426;30.698;104.050;2022-09-09T03:10:49;28.20;99.90
17859;DHT22;35426;30.698;104.050;2022-09-09T03:13:27;27.90;99.90
17859;DHT22;35426;30.698;104.050;2022-09-09T03:16:01;27.50;99.90
17859;DHT22;35426;30.698;104.050;2022-09-09T03:18:42;27.30;99.90
17859;DHT22;35426;30.698;104.050;2022-09-09T03:21:16;26.80;99.90
17859;DHT22;35426;30.698;104.050;2022-09-09T03:23:51;27.30;99.90
17859;DHT22;35426;30.698;104.050;2022-09-09T03:26:25;27.70;99.90
17859;DHT22;35426;30.698;104.050;2022-09-09T03:28:59;27.90;99.90
17859;DHT22;35426;30.698;104.050;2022-09-09T03:31:32;27.90;99.90
17859;DHT22;35426;30.698;104.050;2022-09-09T03:34:10;27.70;99.90
17859;DHT22;35426;30.698;104.050;2022-09-09T03:36:44;27.40;99.90
17859;DHT22;35426;30.698;104.050;2022-09-09T03:39:20;27.00;99.90
17859;DHT22;35426;30.698;104.050;2022-09-09T03:41:56;27.20;99.90
17859;DHT22;35426;30.698;104.050;2022-09-09T03:44:30;27.10;99.90
17859;DHT22;35426;30.698;104.050;2022-09-09T03:47:10;26.90;99.90
17859;DHT22;35426;30.698;104.050;2022-09-09T03:50:11;27.40;99.90
17859;DHT22;35426;30.698;104.050;2022-09-09T03:52:49;27.80;99.90
17859;DHT22;35426;30.698;104.050;2022-09-09T03:55:36;28.00;99.90
17859;DHT22;35426;30.698;104.050;2022-09-09T03:58:09;28.20;99.90
17859;DHT22;35426;30.698;104.050;2022-09-09T04:01:07;27.60;99.90
17859;DHT22;35426;30.698;104.050;2022-09-09T04:03:42;27.20;99.90
17859;DHT22;35426;30.698;104.050;2022-09-09T04:06:37;27.70;99.90
17859;DHT22;35426;30.698;104.050;2022-09-09T04:09:11;28.10;99.90
17859;DHT22;35426;30.698;104.050;2022-09-09T04:11:45;27.90;99.90
17859;DHT22;35426;30.698;104.050;2022-09-09T04:14:20;28.00;99.90
17859;DHT22;35426;30.698;104.050;2022-09-09T04:16:53;27.60;99.90
17859;DHT22;35426;30.698;104.050;2022-09-09T04:19:28;27.40;99.90
17859;DHT22;35426;30.698;104.050;2022-09-09T04:22:04;27.30;99.90
17859;DHT22;35426;30.698;104.050;2022-09-09T04:24:39;27.30;99.90
17859;DHT22;35426;30.698;104.050;2022-09-09T04:27:19;27.20;99.90
17859;DHT22;35426;30.698;104.050;2022-09-09T04:29:53;26.70;99.90
17859;DHT22;35426;30.698;104.050;2022-09-09T04:32:31;26.80;99.90
17859;DHT22;35426;30.698;104.050;2022-09-09T04:35:08;26.80;99.90
17859;DHT22;35426;30.698;104.050;2022-09-09T04:37:44;26.70;99.90
17859;DHT22;35426;30.698;104.050;2022-09-09T04:40:18;26.80;99.90
17859;DHT22;35426;30.698;104.050;2022-09-09T04:42:52;26.80;99.90
17859;DHT22;35426;30.698;104.050;2022-09-09T04:45:26;27.10;99.90
17859;DHT22;35426;30.698;104.050;2022-09-09T04:48:03;26.90;99.90
17859;DHT22;35426;30.698;104.050;2022-09-09T04:50:37;26.80;99.90
17859;DHT22;35426;30.698;104.050;2022-09-09T04:53:15;26.70;99.90
17859;DHT22;35426;30.698;104.050;2022-09-09T04:55:49;26.70;99.90
17859;DHT22;35426;30.698;104.050;2022-09-09T04:58:22;26.60;99.90
17859;DHT22;35426;30.698;104.050;2022-09-09T05:01:04;26.70;99.90
17859;DHT22;35426;30.698;104.050;2022-09-09T05:03:39;26.70;99.90
17859;DHT22;35426;30.698;104.050;2022-09-09T05:06:15;26.70;99.90
17859;DHT22;35426;30.698;104.050;2022-09-09T05:08:53;27.00;99.90
17859;DHT22;35426;30.698;104.050;2022-09-09T05:11:31;27.50;99.90
17859;DHT22;35426;30.698;104.050;2022-09-09T05:14:30;27.10;99.90
17859;DHT22;35426;30.698;104.050;2022-09-09T05:17:04;26.90;99.90
17859;DHT22;35426;30.698;104.050;2022-09-09T05:19:39;26.40;99.90
17859;DHT22;35426;30.698;104.050;2022-09-09T05:22:18;26.60;99.90
17859;DHT22;35426;30.698;104.050;2022-09-09T05:24:57;26.60;99.90
17859;DHT22;35426;30.698;104.050;2022-09-09T05:27:33;26.90;99.90
17859;DHT22;35426;30.698;104.050;2022-09-09T05:30:09;26.40;99.90
17859;DHT22;35426;30.698;104.050;2022-09-09T05:32:57;26.80;99.90
17859;DHT22;35426;30.698;104.050;2022-09-09T05:35:31;27.10;99.90
17859;DHT22;35426;30.698;104.050;2022-09-09T05:38:06;27.20;99.90
17859;DHT22;35426;30.698;104.050;2022-09-09T05:40:47;27.00;99.90
17859;DHT22;35426;30.698;104.050;2022-09-09T05:43:22;26.80;99.90
17859;DHT22;35426;30.698;104.050;2022-09-09T05:46:06;26.70;99.90
17859;DHT22;35426;30.698;104.050;2022-09-09T05:48:41;26.80;99.90
17859;DHT22;35426;30.698;104.050;2022-09-09T05:51:18;27.00;99.90
17859;DHT22;35426;30.698;104.050;2022-09-09T05:53:53;27.00;99.90
17859;DHT22;35426;30.698;104.050;2022-09-09T05:56:34;26.90;99.90
17859;DHT22;35426;30.698;104.050;2022-09-09T05:59:09;27.00;99.90
17859;DHT22;35426;30.698;104.050;2022-09-09T06:01:43;27.10;99.90
17859;DHT22;35426;30.698;104.050;2022-09-09T06:04:26;26.90;99.90
17859;DHT22;35426;30.698;104.050;2022-09-09T06:07:01;27.00;99.90
17859;DHT22;35426;30.698;104.050;2022-09-09T06:09:41;26.80;99.90
17859;DHT22;35426;30.698;104.050;2022-09-09T06:12:18;26.50;99.90
17859;DHT22;35426;30.698;104.050;2022-09-09T06:14:51;26.40;99.90
17859;DHT22;35426;30.698;104.050;2022-09-09T06:17:26;26.50;99.90
17859;DHT22;35426;30.698;104.050;2022-09-09T06:20:23;26.50;99.90
17859;DHT22;35426;30.698;104.050;2022-09-09T06:22:59;27.00;99.90
17859;DHT22;35426;30.698;104.050;2022-09-09T06:25:37;27.30;99.90
17859;DHT22;35426;30.698;104.050;2022-09-09T06:28:29;27.20;99.90
17859;DHT22;35426;30.698;104.050;2022-09-09T06:31:04;27.30;99.90
17859;DHT22;35426;30.698;104.050;2022-09-09T06:33:39;27.10;99.90
17859;DHT22;35426;30.698;104.050;2022-09-09T06:36:16;26.90;99.90
17859;DHT22;35426;30.698;104.050;2022-09-09T06:38:52;27.00;99.90
17859;DHT22;35426;30.698;104.050;2022-09-09T06:41:38;27.00;99.90
17859;DHT22;35426;30.698;104.050;2022-09-09T06:44:37;27.40;99.90
17859;DHT22;35426;30.698;104.050;2022-09-09T06:47:16;27.10;99.90
17859;DHT22;35426;30.698;104.050;2022-09-09T06:49:50;27.20;99.90
17859;DHT22;35426;30.698;104.050;2022-09-09T06:52:24;27.20;99.90
17859;DHT22;35426;30.698;104.050;2022-09-09T06:55:05;27.40;99.90
17859;DHT22;35426;30.698;104.050;2022-09-09T06:57:57;27.40;99.90
17859;DHT22;35426;30.698;104.050;2022-09-09T07:00:34;27.20;99.90
17859;DHT22;35426;30.698;104.050;2022-09-09T07:03:09;27.30;99.90
17859;DHT22;35426;30.698;104.050;2022-09-09T07:05:43;27.50;99.90
17859;DHT22;35426;30.698;104.050;2022-09-09T07:08:25;27.80;99.90
17859;DHT22;35426;30.698;104.050;2022-09-09T07:11:29;28.00;99.90
17859;DHT22;35426;30.698;104.050;2022-09-09T07:14:02;28.00;99.90
17859;DHT22;35426;30.698;104.050;2022-09-09T07:17:02;28.00;99.90
17859;DHT22;35426;30.698;104.050;2022-09-09T07:19:39;27.80;99.90
17859;DHT22;35426;30.698;104.050;2022-09-09T07:22:16;27.90;99.90
17859;DHT22;35426;30.698;104.050;2022-09-09T07:25:00;27.60;99.90
17859;DHT22;35426;30.698;104.050;2022-09-09T07:27:34;27.40;99.90
17859;DHT22;35426;30.698;104.050;2022-09-09T07:30:09;27.20;99.90
17859;DHT22;35426;30.698;104.050;2022-09-09T07:32:54;27.20;99.90
17859;DHT22;35426;30.698;104.050;2022-09-09T07:35:41;27.30;99.90
17859;DHT22;35426;30.698;104.050;2022-09-09T07:38:14;27.30;99.90
17859;DHT22;35426;30.698;104.050;2022-09-09T07:40:48;27.10;99.90
17859;DHT22;35426;30.698;104.050;2022-09-09T07:43:26;27.30;99.90
17859;DHT22;35426;30.698;104.050;2022-09-09T07:46:01;27.60;99.90
17859;DHT22;35426;30.698;104.050;2022-09-09T07:48:36;28.00;99.90
17859;DHT22;35426;30.698;104.050;2022-09-09T07:51:14;27.80;99.90
17859;DHT22;35426;30.698;104.050;2022-09-09T07:53:53;27.60;99.90
17859;DHT22;35426;30.698;104.050;2022-09-09T07:56:27;27.70;99.90
17859;DHT22;35426;30.698;104.050;2022-09-09T07:59:03;27.80;99.90
17859;DHT22;35426;30.698;104.050;2022-09-09T08:01:39;28.00;99.90
17859;DHT22;35426;30.698;104.050;2022-09-09T08:04:34;27.90;99.90
17859;DHT22;35426;30.698;104.050;2022-09-09T08:07:22;27.90;99.90
17859;DHT22;35426;30.698;104.050;2022-09-09T08:09:56;27.90;99.90
17859;DHT22;35426;30.698;104.050;2022-09-09T08:12:43;27.80;99.90
17859;DHT22;35426;30.698;104.050;2022-09-09T08:15:36;28.00;99.90
17859;DHT22;35426;30.698;104.050;2022-09-09T08:18:10;28.30;99.90
17859;DHT22;35426;30.698;104.050;2022-09-09T08:20:50;28.20;99.90
17859;DHT22;35426;30.698;104.050;2022-09-09T08:23:24;27.80;99.90
17859;DHT22;35426;30.698;104.050;2022-09-09T08:26:06;27.80;99.90
17859;DHT22;35426;30.698;104.050;2022-09-09T08:28:40;27.60;99.90
17859;DHT22;35426;30.698;104.050;2022-09-09T08:31:16;27.60;99.90
17859;DHT22;35426;30.698;104.050;2022-09-09T08:33:52;27.60;99.90
17859;DHT22;35426;30.698;104.050;2022-09-09T08:36:33;27.50;99.90
17859;DHT22;35426;30.698;104.050;2022-09-09T08:39:08;27.50;99.90
17859;DHT22;35426;30.698;104.050;2022-09-09T08:42:02;27.50;99.90
17859;DHT22;35426;30.698;104.050;2022-09-09T08:44:55;27.30;99.90
17859;DHT22;35426;30.698;104.050;2022-09-09T08:47:38;27.40;99.90
17859;DHT22;35426;30.698;104.050;2022-09-09T08:50:34;27.40;99.90
17859;DHT22;35426;30.698;104.050;2022-09-09T08:53:23;27.20;99.90
17859;DHT22;35426;30.698;104.050;2022-09-09T08:56:02;27.10;99.90
17859;DHT22;35426;30.698;104.050;2022-09-09T08:58:49;27.10;99.90
17859;DHT22;35426;30.698;104.050;2022-09-09T09:02:05;27.30;99.90
17859;DHT22;35426;30.698;104.050;2022-09-09T09:05:09;27.00;99.90
17859;DHT22;35426;30.698;104.050;2022-09-09T09:07:59;26.90;99.90
17859;DHT22;35426;30.698;104.050;2022-09-09T09:10:46;27.20;99.90
17859;DHT22;35426;30.698;104.050;2022-09-09T09:13:30;27.50;99.90
17859;DHT22;35426;30.698;104.050;2022-09-09T09:16:21;27.30;99.90
17859;DHT22;35426;30.698;104.050;2022-09-09T09:18:57;27.50;99.90
17859;DHT22;35426;30.698;104.050;2022-09-09T09:21:39;27.50;99.90
17859;DHT22;35426;30.698;104.050;2022-09-09T09:24:19;27.30;99.90
17859;DHT22;35426;30.698;104.050;2022-09-09T09:27:04;27.30;99.90
17859;DHT22;35426;30.698;104.050;2022-09-09T09:29:48;27.10;99.90
17859;DHT22;35426;30.698;104.050;2022-09-09T09:32:58;26.90;99.90
17859;DHT22;35426;30.698;104.050;2022-09-09T09:35:35;26.80;99.90
17859;DHT22;35426;30.698;104.050;2022-09-09T09:38:18;26.70;99.90
17859;DHT22;35426;30.698;104.050;2022-09-09T09:41:07;26.60;99.90
17859;DHT22;35426;30.698;104.050;2022-09-09T09:43:54;26.70;99.90
17859;DHT22;35426;30.698;104.050;2022-09-09T09:46:29;26.80;99.90
17859;DHT22;35426;30.698;104.050;2022-09-09T09:49:15;26.80;99.90
17859;DHT22;35426;30.698;104.050;2022-09-09T09:51:48;26.90;99.90
17859;DHT22;35426;30.698;104.050;2022-09-09T09:54:27;26.60;99.90
17859;DHT22;35426;30.698;104.050;2022-09-09T09:57:26;26.50;99.90
17859;DHT22;35426;30.698;104.050;2022-09-09T10:00:14;26.40;99.90
17859;DHT22;35426;30.698;104.050;2022-09-09T10:02:58;26.40;99.90
17859;DHT22;35426;30.698;104.050;2022-09-09T10:05:37;26.40;99.90
17859;DHT22;35426;30.698;104.050;2022-09-09T10:08:20;26.30;99.90
17859;DHT22;35426;30.698;104.050;2022-09-09T10:11:17;26.30;99.90
17859;DHT22;35426;30.698;104.050;2022-09-09T10:14:03;26.30;99.90
17859;DHT22;35426;30.698;104.050;2022-09-09T10:16:50;26.20;99.90
17859;DHT22;35426;30.698;104.050;2022-09-09T10:19:32;26.10;99.90
17859;DHT22;35426;30.698;104.050;2022-09-09T10:22:20;26.10;99.90
17859;DHT22;35426;30.698;104.050;2022-09-09T10:25:13;26.10;99.90
17859;DHT22;35426;30.698;104.050;2022-09-09T10:28:06;26.00;99.90
17859;DHT22;35426;30.698;104.050;2022-09-09T10:30:50;26.00;99.90
17859;DHT22;35426;30.698;104.050;2022-09-09T10:33:32;26.00;99.90
17859;DHT22;35426;30.698;104.050;2022-09-09T10:36:13;25.90;99.90
17859;DHT22;35426;30.698;104.050;2022-09-09T10:39:01;25.80;99.90
17859;DHT22;35426;30.698;104.050;2022-09-09T10:41:46;25.70;99.90
17859;DHT22;35426;30.698;104.050;2022-09-09T10:44:47;25.60;99.90
17859;DHT22;35426;30.698;104.050;2022-09-09T10:47:41;25.70;99.90
17859;DHT22;35426;30.698;104.050;2022-09-09T10:50:46;25.60;99.90
17859;DHT22;35426;30.698;104.050;2022-09-09T10:53:39;25.50;99.90
17859;DHT22;35426;30.698;104.050;2022-09-09T10:56:49;25.50;99.90
17859;DHT22;35426;30.698;104.050;2022-09-09T10:59:27;25.30;99.90
17859;DHT22;35426;30.698;104.050;2022-09-09T11:02:15;25.40;99.90
17859;DHT22;35426;30.698;104.050;2022-09-09T11:05:10;25.40;99.90
17859;DHT22;35426;30.698;104.050;2022-09-09T11:08:23;25.40;99.90
17859;DHT22;35426;30.698;104.050;2022-09-09T11:11:06;25.40;99.90
17859;DHT22;35426;30.698;104.050;2022-09-09T11:13:46;25.40;99.90
17859;DHT22;35426;30.698;104.050;2022-09-09T11:16:28;25.30;99.90
17859;DHT22;35426;30.698;104.050;2022-09-09T11:19:09;25.30;99.90
17859;DHT22;35426;30.698;104.050;2022-09-09T11:21:48;25.30;99.90
17859;DHT22;35426;30.698;104.050;2022-09-09T11:24:40;25.10;99.90
17859;DHT22;35426;30.698;104.050;2022-09-09T11:27:17;25.10;99.90
17859;DHT22;35426;30.698;104.050;2022-09-09T11:30:22;25.10;99.90
17859;DHT22;35426;30.698;104.050;2022-09-09T11:39:57;24.90;99.90
17859;DHT22;35426;30.698;104.050;2022-09-09T11:42:35;24.90;99.90
17859;DHT22;35426;30.698;104.050;2022-09-09T11:45:21;24.90;99.90
17859;DHT22;35426;30.698;104.050;2022-09-09T11:47:58;24.70;99.90
17859;DHT22;35426;30.698;104.050;2022-09-09T11:50:34;24.80;99.90
17859;DHT22;35426;30.698;104.050;2022-09-09T11:53:22;24.70;99.90
17859;DHT22;35426;30.698;104.050;2022-09-09T11:56:05;24.80;99.90
17859;DHT22;35426;30.698;104.050;2022-09-09T11:58:43;24.70;99.90
17859;DHT22;35426;30.698;104.050;2022-09-09T12:01:40;24.60;99.90
17859;DHT22;35426;30.698;104.050;2022-09-09T12:04:33;24.50;99.90
17859;DHT22;35426;30.698;104.050;2022-09-09T12:07:31;24.50;99.90
17859;DHT22;35426;30.698;104.050;2022-09-09T12:10:22;24.50;99.90
17859;DHT22;35426;30.698;104.050;2022-09-09T12:13:09;24.60;99.90
17859;DHT22;35426;30.698;104.050;2022-09-09T12:15:51;24.50;99.90
17859;DHT22;35426;30.698;104.050;2022-09-09T12:18:31;24.50;99.90
17859;DHT22;35426;30.698;104.050;2022-09-09T12:21:14;24.50;99.90
17859;DHT22;35426;30.698;104.050;2022-09-09T12:23:54;24.40;99.90
17859;DHT22;35426;30.698;104.050;2022-09-09T12:26:34;24.40;99.90
17859;DHT22;35426;30.698;104.050;2022-09-09T12:29:19;24.30;99.90
17859;DHT22;35426;30.698;104.050;2022-09-09T12:31:59;24.30;99.90
17859;DHT22;35426;30.698;104.050;2022-09-09T12:34:39;24.30;99.90
17859;DHT22;35426;30.698;104.050;2022-09-09T12:37:23;24.20;99.90
17859;DHT22;35426;30.698;104.050;2022-09-09T12:40:00;24.30;99.90
17859;DHT22;35426;30.698;104.050;2022-09-09T12:42:41;24.30;99.90
17859;DHT22;35426;30.698;104.050;2022-09-09T12:45:20;24.20;99.90
17859;DHT22;35426;30.698;104.050;2022-09-09T12:47:56;24.20;99.90
17859;DHT22;35426;30.698;104.050;2022-09-09T12:50:32;24.20;99.90
17859;DHT22;35426;30.698;104.050;2022-09-09T12:53:23;24.20;99.90
17859;DHT22;35426;30.698;104.050;2022-09-09T12:56:00;24.30;99.90
17859;DHT22;35426;30.698;104.050;2022-09-09T12:58:35;24.20;99.90
17859;DHT22;35426;30.698;104.050;2022-09-09T13:01:23;24.10;99.90
17859;DHT22;35426;30.698;104.050;2022-09-09T13:04:21;24.10;99.90
17859;DHT22;35426;30.698;104.050;2022-09-09T13:07:05;24.00;99.90
17859;DHT22;35426;30.698;104.050;2022-09-09T13:09:41;23.90;99.90
17859;DHT22;35426;30.698;104.050;2022-09-09T13:12:20;24.00;99.90
17859;DHT22;35426;30.698;104.050;2022-09-09T13:14:57;24.00;99.90
17859;DHT22;35426;30.698;104.050;2022-09-09T13:17:32;24.00;99.90
17859;DHT22;35426;30.698;104.050;2022-09-09T13:20:14;24.00;99.90
17859;DHT22;35426;30.698;104.050;2022-09-09T13:22:50;24.00;99.90
17859;DHT22;35426;30.698;104.050;2022-09-09T13:25:27;23.80;99.90
17859;DHT22;35426;30.698;104.050;2022-09-09T13:28:02;23.80;99.90
17859;DHT22;35426;30.698;104.050;2022-09-09T13:30:37;23.80;99.90
17859;DHT22;35426;30.698;104.050;2022-09-09T13:33:23;23.80;99.90
17859;DHT22;35426;30.698;104.050;2022-09-09T13:35:57;23.80;99.90
17859;DHT22;35426;30.698;104.050;2022-09-09T13:38:33;23.80;99.90
17859;DHT22;35426;30.698;104.050;2022-09-09T13:41:18;23.70;99.90
17859;DHT22;35426;30.698;104.050;2022-09-09T13:44:20;23.80;99.90
17859;DHT22;35426;30.698;104.050;2022-09-09T13:47:03;23.80;99.90
17859;DHT22;35426;30.698;104.050;2022-09-09T13:49:41;23.80;99.90
17859;DHT22;35426;30.698;104.050;2022-09-09T13:52:17;23.70;99.90
17859;DHT22;35426;30.698;104.050;2022-09-09T13:54:53;23.70;99.90
17859;DHT22;35426;30.698;104.050;2022-09-09T13:57:51;23.60;99.90
17859;DHT22;35426;30.698;104.050;2022-09-09T14:00:38;23.50;99.90
17859;DHT22;35426;30.698;104.050;2022-09-09T14:03:15;23.50;99.90
17859;DHT22;35426;30.698;104.050;2022-09-09T14:05:55;23.40;99.90
17859;DHT22;35426;30.698;104.050;2022-09-09T14:08:31;23.40;99.90
17859;DHT22;35426;30.698;104.050;2022-09-09T14:11:12;23.30;99.90
17859;DHT22;35426;30.698;104.050;2022-09-09T14:13:51;23.50;99.90
17859;DHT22;35426;30.698;104.050;2022-09-09T14:16:36;23.30;99.90
17859;DHT22;35426;30.698;104.050;2022-09-09T14:19:10;23.40;99.90
17859;DHT22;35426;30.698;104.050;2022-09-09T14:21:46;23.30;99.90
17859;DHT22;35426;30.698;104.050;2022-09-09T14:24:21;23.30;99.90
17859;DHT22;35426;30.698;104.050;2022-09-09T14:26:56;23.40;99.90
17859;DHT22;35426;30.698;104.050;2022-09-09T14:29:29;23.40;99.90
17859;DHT22;35426;30.698;104.050;2022-09-09T14:32:08;23.30;99.90
17859;DHT22;35426;30.698;104.050;2022-09-09T14:35:05;23.20;99.90
17859;DHT22;35426;30.698;104.050;2022-09-09T14:37:42;23.20;99.90
17859;DHT22;35426;30.698;104.050;2022-09-09T14:40:17;23.10;99.90
17859;DHT22;35426;30.698;104.050;2022-09-09T14:42:52;23.20;99.90
17859;DHT22;35426;30.698;104.050;2022-09-09T14:45:28;23.10;99.90
17859;DHT22;35426;30.698;104.050;2022-09-09T14:48:03;23.10;99.90
17859;DHT22;35426;30.698;104.050;2022-09-09T14:50:37;23.10;99.90
17859;DHT22;35426;30.698;104.050;2022-09-09T14:53:12;23.00;99.90
17859;DHT22;35426;30.698;104.050;2022-09-09T14:55:48;23.00;99.90
17859;DHT22;35426;30.698;104.050;2022-09-09T14:58:22;22.90;99.90
17859;DHT22;35426;30.698;104.050;2022-09-09T15:01:04;22.90;99.90
17859;DHT22;35426;30.698;104.050;2022-09-09T15:03:39;23.00;99.90
17859;DHT22;35426;30.698;104.050;2022-09-09T15:06:14;23.00;99.90
17859;DHT22;35426;30.698;104.050;2022-09-09T15:08:56;23.00;99.90
17859;DHT22;35426;30.698;104.050;2022-09-09T15:11:33;22.90;99.90
17859;DHT22;35426;30.698;104.050;2022-09-09T15:14:10;22.80;99.90
17859;DHT22;35426;30.698;104.050;2022-09-09T15:16:48;22.80;99.90
17859;DHT22;35426;30.698;104.050;2022-09-09T15:19:23;22.90;99.90
17859;DHT22;35426;30.698;104.050;2022-09-09T15:21:56;22.80;99.90
17859;DHT22;35426;30.698;104.050;2022-09-09T15:24:33;22.70;99.90
17859;DHT22;35426;30.698;104.050;2022-09-09T15:27:10;22.80;99.90
17859;DHT22;35426;30.698;104.050;2022-09-09T15:29:50;22.90;99.90
17859;DHT22;35426;30.698;104.050;2022-09-09T15:32:25;22.80;99.90
17859;DHT22;35426;30.698;104.050;2022-09-09T15:35:08;22.80;99.90
17859;DHT22;35426;30.698;104.050;2022-09-09T15:37:58;22.70;99.90
17859;DHT22;35426;30.698;104.050;2022-09-09T15:40:39;22.70;99.90
17859;DHT22;35426;30.698;104.050;2022-09-09T15:43:14;22.70;99.90
17859;DHT22;35426;30.698;104.050;2022-09-09T15:45:54;22.60;99.90
17859;DHT22;35426;30.698;104.050;2022-09-09T15:48:31;22.60;99.90
17859;DHT22;35426;30.698;104.050;2022-09-09T15:51:10;22.60;99.90
17859;DHT22;35426;30.698;104.050;2022-09-09T15:54:06;22.60;99.90
17859;DHT22;35426;30.698;104.050;2022-09-09T15:56:44;22.50;99.90
17859;DHT22;35426;30.698;104.050;2022-09-09T15:59:20;22.50;99.90
17859;DHT22;35426;30.698;104.050;2022-09-09T16:01:53;22.60;99.90
17859;DHT22;35426;30.698;104.050;2022-09-09T16:04:28;22.60;99.90
17859;DHT22;35426;30.698;104.050;2022-09-09T16:07:05;22.70;99.90
17859;DHT22;35426;30.698;104.050;2022-09-09T16:09:50;22.80;99.90
17859;DHT22;35426;30.698;104.050;2022-09-09T16:12:25;22.80;99.90
17859;DHT22;35426;30.698;104.050;2022-09-09T16:15:00;22.80;99.90
17859;DHT22;35426;30.698;104.050;2022-09-09T16:17:34;22.70;99.90
17859;DHT22;35426;30.698;104.050;2022-09-09T16:20:10;22.70;99.90
17859;DHT22;35426;30.698;104.050;2022-09-09T16:22:51;22.70;99.90
17859;DHT22;35426;30.698;104.050;2022-09-09T16:25:25;22.60;99.90
17859;DHT22;35426;30.698;104.050;2022-09-09T16:28:01;22.70;99.90
17859;DHT22;35426;30.698;104.050;2022-09-09T16:30:37;22.70;99.90
17859;DHT22;35426;30.698;104.050;2022-09-09T16:33:22;22.60;99.90
17859;DHT22;35426;30.698;104.050;2022-09-09T16:35:56;22.60;99.90
17859;DHT22;35426;30.698;104.050;2022-09-09T16:38:35;22.60;99.90